sensor_id;sensor_type;location;lat;lon;timestamp;P1;durP1;ratioP1;P2;durP2;ratioP2
53875;SDS011;39789;53.216;5.624;2022-12-18T00:01:00;135.57;;;52.63;;
53875;SDS011;39789;53.216;5.624;2022-12-18T00:03:31;114.00;;;46.40;;
53875;SDS011;39789;53.216;5.624;2022-12-18T00:06:00;123.17;;;50.63;;
53875;SDS011;39789;53.216;5.624;2022-12-18T00:08:26;122.32;;;49.65;;
53875;SDS011;39789;53.216;5.624;2022-12-18T00:10:51;129.73;;;51.23;;
53875;SDS011;39789;53.216;5.624;2022-12-18T00:13:17;137.10;;;54.40;;
53875;SDS011;39789;53.216;5.624;2022-12-18T00:15:42;139.83;;;53.30;;
53875;SDS011;39789;53.216;5.624;2022-12-18T00:18:08;133.47;;;52.17;;
53875;SDS011;39789;53.216;5.624;2022-12-18T00:20:37;131.65;;;51.97;;
53875;SDS011;39789;53.216;5.624;2022-12-18T00:23:05;115.53;;;50.95;;
53875;SDS011;39789;53.216;5.624;2022-12-18T00:25:34;113.15;;;46.85;;
53875;SDS011;39789;53.216;5.624;2022-12-18T00:28:01;108.40;;;47.53;;
53875;SDS011;39789;53.216;5.624;2022-12-18T00:30:27;108.13;;;45.20;;
53875;SDS011;39789;53.216;5.624;2022-12-18T00:32:53;118.13;;;47.33;;
53875;SDS011;39789;53.216;5.624;2022-12-18T00:35:19;117.83;;;48.93;;
53875;SDS011;39789;53.216;5.624;2022-12-18T00:37:44;115.70;;;48.00;;
53875;SDS011;39789;53.216;5.624;2022-12-18T00:40:10;123.78;;;50.42;;
53875;SDS011;39789;53.216;5.624;2022-12-18T00:42:36;119.53;;;49.55;;
53875;SDS011;39789;53.216;5.624;2022-12-18T00:45:20;115.77;;;47.20;;
53875;SDS011;39789;53.216;5.624;2022-12-18T00:47:50;105.40;;;46.50;;
53875;SDS011;39789;53.216;5.624;2022-12-18T00:50:16;108.32;;;47.63;;
53875;SDS011;39789;53.216;5.624;2022-12-18T00:52:42;112.93;;;48.97;;
53875;SDS011;39789;53.216;5.624;2022-12-18T00:55:08;104.32;;;47.80;;
53875;SDS011;39789;53.216;5.624;2022-12-18T00:57:34;115.13;;;49.92;;
53875;SDS011;39789;53.216;5.624;2022-12-18T00:59:59;113.75;;;47.20;;
53875;SDS011;39789;53.216;5.624;2022-12-18T01:02:25;114.20;;;48.47;;
53875;SDS011;39789;53.216;5.624;2022-12-18T01:04:51;105.40;;;45.37;;
53875;SDS011;39789;53.216;5.624;2022-12-18T01:07:16;113.75;;;48.25;;
53875;SDS011;39789;53.216;5.624;2022-12-18T01:09:42;112.73;;;49.00;;
53875;SDS011;39789;53.216;5.624;2022-12-18T01:12:07;98.45;;;46.92;;
53875;SDS011;39789;53.216;5.624;2022-12-18T01:14:33;101.18;;;44.35;;
53875;SDS011;39789;53.216;5.624;2022-12-18T01:16:59;102.15;;;47.78;;
53875;SDS011;39789;53.216;5.624;2022-12-18T01:19:24;104.68;;;45.75;;
53875;SDS011;39789;53.216;5.624;2022-12-18T01:21:50;113.03;;;48.40;;
53875;SDS011;39789;53.216;5.624;2022-12-18T01:24:15;98.32;;;42.85;;
53875;SDS011;39789;53.216;5.624;2022-12-18T01:26:41;101.97;;;45.00;;
53875;SDS011;39789;53.216;5.624;2022-12-18T01:29:06;98.13;;;42.60;;
53875;SDS011;39789;53.216;5.624;2022-12-18T01:31:32;100.68;;;44.03;;
53875;SDS011;39789;53.216;5.624;2022-12-18T01:34:02;103.82;;;45.78;;
53875;SDS011;39789;53.216;5.624;2022-12-18T01:36:35;99.63;;;44.70;;
53875;SDS011;39789;53.216;5.624;2022-12-18T01:39:03;104.63;;;47.65;;
53875;SDS011;39789;53.216;5.624;2022-12-18T01:41:35;95.60;;;43.60;;
53875;SDS011;39789;53.216;5.624;2022-12-18T01:47:53;90.80;;;41.55;;
53875;SDS011;39789;53.216;5.624;2022-12-18T01:50:40;89.07;;;38.75;;
53875;SDS011;39789;53.216;5.624;2022-12-18T01:53:15;87.70;;;39.40;;
53875;SDS011;39789;53.216;5.624;2022-12-18T01:55:44;97.97;;;41.27;;
53875;SDS011;39789;53.216;5.624;2022-12-18T01:58:14;96.43;;;42.13;;
53875;SDS011;39789;53.216;5.624;2022-12-18T02:00:41;96.03;;;42.87;;
53875;SDS011;39789;53.216;5.624;2022-12-18T02:03:07;96.13;;;41.67;;
53875;SDS011;39789;53.216;5.624;2022-12-18T02:14:16;90.53;;;38.00;;
53875;SDS011;39789;53.216;5.624;2022-12-18T02:17:11;82.55;;;37.90;;
53875;SDS011;39789;53.216;5.624;2022-12-18T02:27:45;88.27;;;36.07;;
53875;SDS011;39789;53.216;5.624;2022-12-18T02:30:14;77.67;;;35.40;;
53875;SDS011;39789;53.216;5.624;2022-12-18T02:32:41;80.77;;;37.77;;
53875;SDS011;39789;53.216;5.624;2022-12-18T02:35:22;78.88;;;36.20;;
53875;SDS011;39789;53.216;5.624;2022-12-18T02:37:53;87.13;;;37.90;;
53875;SDS011;39789;53.216;5.624;2022-12-18T02:40:19;89.40;;;38.70;;
53875;SDS011;39789;53.216;5.624;2022-12-18T02:42:48;85.63;;;40.27;;
53875;SDS011;39789;53.216;5.624;2022-12-18T02:45:14;89.77;;;39.13;;
53875;SDS011;39789;53.216;5.624;2022-12-18T02:47:40;81.67;;;37.50;;
53875;SDS011;39789;53.216;5.624;2022-12-18T02:50:34;75.23;;;34.23;;
53875;SDS011;39789;53.216;5.624;2022-12-18T02:56:15;70.03;;;34.70;;
53875;SDS011;39789;53.216;5.624;2022-12-18T02:58:55;65.77;;;32.53;;
53875;SDS011;39789;53.216;5.624;2022-12-18T03:01:30;76.20;;;34.83;;
53875;SDS011;39789;53.216;5.624;2022-12-18T03:04:12;79.83;;;35.20;;
53875;SDS011;39789;53.216;5.624;2022-12-18T03:06:53;76.73;;;34.70;;
53875;SDS011;39789;53.216;5.624;2022-12-18T03:09:22;84.37;;;36.40;;
53875;SDS011;39789;53.216;5.624;2022-12-18T03:11:55;73.93;;;36.83;;
53875;SDS011;39789;53.216;5.624;2022-12-18T03:14:45;73.63;;;34.00;;
53875;SDS011;39789;53.216;5.624;2022-12-18T03:17:18;64.20;;;32.23;;
53875;SDS011;39789;53.216;5.624;2022-12-18T03:19:46;68.93;;;33.17;;
53875;SDS011;39789;53.216;5.624;2022-12-18T03:22:12;64.17;;;33.23;;
53875;SDS011;39789;53.216;5.624;2022-12-18T03:24:40;73.63;;;33.40;;
53875;SDS011;39789;53.216;5.624;2022-12-18T03:27:08;61.77;;;28.97;;
53875;SDS011;39789;53.216;5.624;2022-12-18T03:29:45;71.70;;;33.67;;
53875;SDS011;39789;53.216;5.624;2022-12-18T03:32:15;76.93;;;33.47;;
53875;SDS011;39789;53.216;5.624;2022-12-18T03:34:49;75.43;;;34.07;;
53875;SDS011;39789;53.216;5.624;2022-12-18T03:37:17;78.53;;;35.43;;
53875;SDS011;39789;53.216;5.624;2022-12-18T03:39:43;75.73;;;34.40;;
53875;SDS011;39789;53.216;5.624;2022-12-18T03:42:15;67.20;;;32.20;;
53875;SDS011;39789;53.216;5.624;2022-12-18T03:47:44;71.73;;;32.90;;
53875;SDS011;39789;53.216;5.624;2022-12-18T03:50:33;69.13;;;32.07;;
53875;SDS011;39789;53.216;5.624;2022-12-18T03:55:44;75.00;;;35.08;;
53875;SDS011;39789;53.216;5.624;2022-12-18T03:58:11;82.20;;;33.67;;
53875;SDS011;39789;53.216;5.624;2022-12-18T04:00:40;83.20;;;35.17;;
53875;SDS011;39789;53.216;5.624;2022-12-18T04:03:06;85.03;;;35.17;;
53875;SDS011;39789;53.216;5.624;2022-12-18T04:05:34;77.93;;;33.90;;
53875;SDS011;39789;53.216;5.624;2022-12-18T04:08:02;77.23;;;35.57;;
53875;SDS011;39789;53.216;5.624;2022-12-18T04:10:28;81.80;;;36.90;;
53875;SDS011;39789;53.216;5.624;2022-12-18T04:12:58;70.90;;;33.33;;
53875;SDS011;39789;53.216;5.624;2022-12-18T04:15:23;79.57;;;36.23;;
53875;SDS011;39789;53.216;5.624;2022-12-18T04:17:49;74.73;;;33.73;;
53875;SDS011;39789;53.216;5.624;2022-12-18T04:20:15;80.43;;;36.07;;
53875;SDS011;39789;53.216;5.624;2022-12-18T04:22:41;81.13;;;33.73;;
53875;SDS011;39789;53.216;5.624;2022-12-18T04:25:07;73.47;;;32.23;;
53875;SDS011;39789;53.216;5.624;2022-12-18T04:27:36;78.53;;;32.20;;
53875;SDS011;39789;53.216;5.624;2022-12-18T04:30:01;71.07;;;33.90;;
53875;SDS011;39789;53.216;5.624;2022-12-18T04:32:27;73.93;;;34.63;;
53875;SDS011;39789;53.216;5.624;2022-12-18T04:34:53;83.53;;;33.97;;
53875;SDS011;39789;53.216;5.624;2022-12-18T04:37:19;71.80;;;33.30;;
53875;SDS011;39789;53.216;5.624;2022-12-18T04:39:44;75.10;;;32.60;;
53875;SDS011;39789;53.216;5.624;2022-12-18T04:42:10;75.87;;;32.40;;
53875;SDS011;39789;53.216;5.624;2022-12-18T04:44:36;74.93;;;32.30;;
53875;SDS011;39789;53.216;5.624;2022-12-18T04:47:01;81.70;;;32.67;;
53875;SDS011;39789;53.216;5.624;2022-12-18T04:49:27;77.60;;;33.77;;
53875;SDS011;39789;53.216;5.624;2022-12-18T04:51:52;78.73;;;36.03;;
53875;SDS011;39789;53.216;5.624;2022-12-18T04:54:18;74.33;;;32.90;;
53875;SDS011;39789;53.216;5.624;2022-12-18T04:56:44;75.50;;;35.70;;
53875;SDS011;39789;53.216;5.624;2022-12-18T04:59:09;74.97;;;33.03;;
53875;SDS011;39789;53.216;5.624;2022-12-18T05:01:35;71.60;;;32.03;;
53875;SDS011;39789;53.216;5.624;2022-12-18T05:04:01;83.13;;;37.30;;
53875;SDS011;39789;53.216;5.624;2022-12-18T05:06:26;73.37;;;36.10;;
53875;SDS011;39789;53.216;5.624;2022-12-18T05:08:52;66.37;;;32.20;;
53875;SDS011;39789;53.216;5.624;2022-12-18T05:11:18;74.47;;;33.67;;
53875;SDS011;39789;53.216;5.624;2022-12-18T05:13:43;80.77;;;35.80;;
53875;SDS011;39789;53.216;5.624;2022-12-18T05:16:10;79.77;;;34.00;;
53875;SDS011;39789;53.216;5.624;2022-12-18T05:18:36;80.07;;;35.60;;
53875;SDS011;39789;53.216;5.624;2022-12-18T05:21:02;72.37;;;33.70;;
53875;SDS011;39789;53.216;5.624;2022-12-18T05:23:29;78.83;;;37.07;;
53875;SDS011;39789;53.216;5.624;2022-12-18T05:28:24;79.47;;;36.07;;
53875;SDS011;39789;53.216;5.624;2022-12-18T05:30:53;72.07;;;35.47;;
53875;SDS011;39789;53.216;5.624;2022-12-18T05:33:20;76.23;;;35.43;;
53875;SDS011;39789;53.216;5.624;2022-12-18T05:35:54;76.73;;;34.93;;
53875;SDS011;39789;53.216;5.624;2022-12-18T05:38:22;72.75;;;32.03;;
53875;SDS011;39789;53.216;5.624;2022-12-18T05:40:48;77.23;;;32.93;;
53875;SDS011;39789;53.216;5.624;2022-12-18T05:43:15;67.57;;;31.90;;
53875;SDS011;39789;53.216;5.624;2022-12-18T05:45:41;77.50;;;34.90;;
53875;SDS011;39789;53.216;5.624;2022-12-18T05:48:15;71.20;;;32.20;;
53875;SDS011;39789;53.216;5.624;2022-12-18T05:50:41;68.83;;;32.70;;
53875;SDS011;39789;53.216;5.624;2022-12-18T05:53:10;70.07;;;32.87;;
53875;SDS011;39789;53.216;5.624;2022-12-18T05:55:37;73.47;;;32.50;;
53875;SDS011;39789;53.216;5.624;2022-12-18T05:58:04;73.90;;;31.67;;
53875;SDS011;39789;53.216;5.624;2022-12-18T06:00:31;70.77;;;34.83;;
53875;SDS011;39789;53.216;5.624;2022-12-18T06:02:58;71.63;;;33.13;;
53875;SDS011;39789;53.216;5.624;2022-12-18T06:05:24;80.73;;;34.70;;
53875;SDS011;39789;53.216;5.624;2022-12-18T06:07:50;66.80;;;33.13;;
53875;SDS011;39789;53.216;5.624;2022-12-18T06:10:16;65.23;;;31.43;;
53875;SDS011;39789;53.216;5.624;2022-12-18T06:12:42;65.37;;;32.07;;
53875;SDS011;39789;53.216;5.624;2022-12-18T06:15:08;72.30;;;31.90;;
53875;SDS011;39789;53.216;5.624;2022-12-18T06:17:33;65.53;;;30.43;;
53875;SDS011;39789;53.216;5.624;2022-12-18T06:19:59;66.57;;;31.73;;
53875;SDS011;39789;53.216;5.624;2022-12-18T06:22:26;58.43;;;31.37;;
53875;SDS011;39789;53.216;5.624;2022-12-18T06:24:52;69.87;;;33.07;;
53875;SDS011;39789;53.216;5.624;2022-12-18T06:27:18;65.63;;;30.73;;
53875;SDS011;39789;53.216;5.624;2022-12-18T06:29:43;63.83;;;29.80;;
53875;SDS011;39789;53.216;5.624;2022-12-18T06:32:09;69.37;;;31.67;;
53875;SDS011;39789;53.216;5.624;2022-12-18T06:34:36;66.93;;;29.90;;
53875;SDS011;39789;53.216;5.624;2022-12-18T06:37:02;58.97;;;29.43;;
53875;SDS011;39789;53.216;5.624;2022-12-18T06:39:28;61.47;;;30.00;;
53875;SDS011;39789;53.216;5.624;2022-12-18T06:41:54;65.37;;;30.77;;
53875;SDS011;39789;53.216;5.624;2022-12-18T06:44:19;61.97;;;29.43;;
53875;SDS011;39789;53.216;5.624;2022-12-18T06:46:45;60.40;;;30.13;;
53875;SDS011;39789;53.216;5.624;2022-12-18T06:49:11;62.97;;;30.33;;
53875;SDS011;39789;53.216;5.624;2022-12-18T06:51:37;61.63;;;31.30;;
53875;SDS011;39789;53.216;5.624;2022-12-18T06:54:02;64.30;;;31.63;;
53875;SDS011;39789;53.216;5.624;2022-12-18T06:56:28;61.90;;;31.47;;
53875;SDS011;39789;53.216;5.624;2022-12-18T06:58:54;65.37;;;30.23;;
53875;SDS011;39789;53.216;5.624;2022-12-18T07:01:20;55.97;;;28.17;;
53875;SDS011;39789;53.216;5.624;2022-12-18T07:03:46;64.33;;;32.97;;
53875;SDS011;39789;53.216;5.624;2022-12-18T07:06:16;65.93;;;29.90;;
53875;SDS011;39789;53.216;5.624;2022-12-18T07:08:44;56.67;;;28.97;;
53875;SDS011;39789;53.216;5.624;2022-12-18T07:11:10;58.40;;;31.03;;
53875;SDS011;39789;53.216;5.624;2022-12-18T07:13:36;64.60;;;32.10;;
53875;SDS011;39789;53.216;5.624;2022-12-18T07:19:11;63.30;;;30.37;;
53875;SDS011;39789;53.216;5.624;2022-12-18T07:21:36;57.10;;;31.77;;
53875;SDS011;39789;53.216;5.624;2022-12-18T07:24:02;54.33;;;27.67;;
53875;SDS011;39789;53.216;5.624;2022-12-18T07:26:28;52.43;;;27.87;;
53875;SDS011;39789;53.216;5.624;2022-12-18T07:28:56;50.47;;;26.63;;
53875;SDS011;39789;53.216;5.624;2022-12-18T07:31:22;52.20;;;26.53;;
53875;SDS011;39789;53.216;5.624;2022-12-18T07:33:49;45.30;;;25.73;;
53875;SDS011;39789;53.216;5.624;2022-12-18T07:36:15;47.70;;;27.30;;
53875;SDS011;39789;53.216;5.624;2022-12-18T07:38:41;54.63;;;30.43;;
53875;SDS011;39789;53.216;5.624;2022-12-18T07:41:08;54.83;;;28.17;;
53875;SDS011;39789;53.216;5.624;2022-12-18T07:43:36;48.13;;;24.67;;
53875;SDS011;39789;53.216;5.624;2022-12-18T07:46:02;51.73;;;26.07;;
53875;SDS011;39789;53.216;5.624;2022-12-18T07:48:28;58.90;;;27.17;;
53875;SDS011;39789;53.216;5.624;2022-12-18T07:50:57;50.53;;;26.10;;
53875;SDS011;39789;53.216;5.624;2022-12-18T07:53:30;50.57;;;24.73;;
53875;SDS011;39789;53.216;5.624;2022-12-18T07:55:58;47.57;;;23.93;;
53875;SDS011;39789;53.216;5.624;2022-12-18T07:58:25;49.33;;;23.80;;
53875;SDS011;39789;53.216;5.624;2022-12-18T08:00:51;47.20;;;26.23;;
53875;SDS011;39789;53.216;5.624;2022-12-18T08:03:17;48.93;;;24.83;;
53875;SDS011;39789;53.216;5.624;2022-12-18T08:05:43;48.00;;;25.33;;
53875;SDS011;39789;53.216;5.624;2022-12-18T08:08:09;43.67;;;23.17;;
53875;SDS011;39789;53.216;5.624;2022-12-18T08:10:34;45.23;;;25.23;;
53875;SDS011;39789;53.216;5.624;2022-12-18T08:13:00;44.47;;;25.40;;
53875;SDS011;39789;53.216;5.624;2022-12-18T08:15:25;44.00;;;25.43;;
53875;SDS011;39789;53.216;5.624;2022-12-18T08:17:51;39.27;;;21.10;;
53875;SDS011;39789;53.216;5.624;2022-12-18T08:20:16;46.20;;;23.20;;
53875;SDS011;39789;53.216;5.624;2022-12-18T08:22:43;45.87;;;24.90;;
53875;SDS011;39789;53.216;5.624;2022-12-18T08:25:09;44.03;;;25.27;;
53875;SDS011;39789;53.216;5.624;2022-12-18T08:27:35;39.40;;;23.13;;
53875;SDS011;39789;53.216;5.624;2022-12-18T08:30:01;42.77;;;22.87;;
53875;SDS011;39789;53.216;5.624;2022-12-18T08:32:27;42.43;;;23.17;;
53875;SDS011;39789;53.216;5.624;2022-12-18T08:34:53;44.43;;;22.60;;
53875;SDS011;39789;53.216;5.624;2022-12-18T08:37:19;38.63;;;21.57;;
53875;SDS011;39789;53.216;5.624;2022-12-18T08:39:44;42.13;;;22.27;;
53875;SDS011;39789;53.216;5.624;2022-12-18T08:45:37;39.20;;;23.57;;
53875;SDS011;39789;53.216;5.624;2022-12-18T08:48:02;41.10;;;22.53;;
53875;SDS011;39789;53.216;5.624;2022-12-18T08:50:28;41.80;;;25.20;;
53875;SDS011;39789;53.216;5.624;2022-12-18T08:52:54;36.53;;;21.90;;
53875;SDS011;39789;53.216;5.624;2022-12-18T08:55:19;35.37;;;21.67;;
53875;SDS011;39789;53.216;5.624;2022-12-18T08:57:47;37.43;;;20.80;;
53875;SDS011;39789;53.216;5.624;2022-12-18T09:00:14;38.47;;;21.20;;
53875;SDS011;39789;53.216;5.624;2022-12-18T09:02:40;40.03;;;22.30;;
53875;SDS011;39789;53.216;5.624;2022-12-18T09:05:06;38.37;;;22.80;;
53875;SDS011;39789;53.216;5.624;2022-12-18T09:07:31;43.77;;;23.67;;
53875;SDS011;39789;53.216;5.624;2022-12-18T09:09:57;37.57;;;22.13;;
53875;SDS011;39789;53.216;5.624;2022-12-18T09:12:22;34.10;;;19.77;;
53875;SDS011;39789;53.216;5.624;2022-12-18T09:14:48;36.23;;;21.30;;
53875;SDS011;39789;53.216;5.624;2022-12-18T09:17:13;38.23;;;21.00;;
53875;SDS011;39789;53.216;5.624;2022-12-18T09:19:39;42.37;;;22.33;;
53875;SDS011;39789;53.216;5.624;2022-12-18T09:22:05;33.40;;;19.87;;
53875;SDS011;39789;53.216;5.624;2022-12-18T09:24:30;38.17;;;21.53;;
53875;SDS011;39789;53.216;5.624;2022-12-18T09:26:56;37.27;;;21.77;;
53875;SDS011;39789;53.216;5.624;2022-12-18T09:29:21;34.03;;;19.73;;
53875;SDS011;39789;53.216;5.624;2022-12-18T09:31:47;34.50;;;21.30;;
53875;SDS011;39789;53.216;5.624;2022-12-18T09:34:14;34.77;;;20.93;;
53875;SDS011;39789;53.216;5.624;2022-12-18T09:36:40;33.20;;;20.07;;
53875;SDS011;39789;53.216;5.624;2022-12-18T09:39:06;34.77;;;19.23;;
53875;SDS011;39789;53.216;5.624;2022-12-18T09:49:34;28.77;;;18.60;;
53875;SDS011;39789;53.216;5.624;2022-12-18T09:52:05;33.37;;;20.00;;
53875;SDS011;39789;53.216;5.624;2022-12-18T09:54:39;29.53;;;17.90;;
53875;SDS011;39789;53.216;5.624;2022-12-18T09:57:10;34.13;;;18.73;;
53875;SDS011;39789;53.216;5.624;2022-12-18T09:59:39;27.97;;;16.43;;
53875;SDS011;39789;53.216;5.624;2022-12-18T10:02:19;29.20;;;17.27;;
53875;SDS011;39789;53.216;5.624;2022-12-18T10:04:49;31.57;;;17.80;;
53875;SDS011;39789;53.216;5.624;2022-12-18T10:10:33;32.80;;;17.93;;
53875;SDS011;39789;53.216;5.624;2022-12-18T10:13:06;30.47;;;15.67;;
53875;SDS011;39789;53.216;5.624;2022-12-18T10:16:13;24.80;;;15.70;;
53875;SDS011;39789;53.216;5.624;2022-12-18T10:21:51;24.73;;;16.37;;
53875;SDS011;39789;53.216;5.624;2022-12-18T10:24:32;27.00;;;16.97;;
53875;SDS011;39789;53.216;5.624;2022-12-18T10:27:22;28.00;;;16.07;;
53875;SDS011;39789;53.216;5.624;2022-12-18T10:29:49;30.23;;;16.20;;
53875;SDS011;39789;53.216;5.624;2022-12-18T10:32:19;24.07;;;15.53;;
53875;SDS011;39789;53.216;5.624;2022-12-18T10:34:47;20.37;;;13.23;;
53875;SDS011;39789;53.216;5.624;2022-12-18T10:37:15;25.20;;;16.23;;
53875;SDS011;39789;53.216;5.624;2022-12-18T10:39:43;22.97;;;15.30;;
53875;SDS011;39789;53.216;5.624;2022-12-18T10:42:11;23.20;;;14.47;;
53875;SDS011;39789;53.216;5.624;2022-12-18T10:44:45;22.85;;;14.80;;
53875;SDS011;39789;53.216;5.624;2022-12-18T10:47:12;23.95;;;14.60;;
53875;SDS011;39789;53.216;5.624;2022-12-18T10:49:47;21.33;;;13.87;;
53875;SDS011;39789;53.216;5.624;2022-12-18T10:55:58;25.05;;;14.70;;
53875;SDS011;39789;53.216;5.624;2022-12-18T11:02:09;19.58;;;13.07;;
53875;SDS011;39789;53.216;5.624;2022-12-18T11:05:00;18.17;;;12.15;;
53875;SDS011;39789;53.216;5.624;2022-12-18T11:11:15;21.02;;;13.00;;
53875;SDS011;39789;53.216;5.624;2022-12-18T11:13:59;21.65;;;12.40;;
53875;SDS011;39789;53.216;5.624;2022-12-18T11:16:28;20.50;;;13.77;;
53875;SDS011;39789;53.216;5.624;2022-12-18T11:19:41;19.85;;;13.23;;
53875;SDS011;39789;53.216;5.624;2022-12-18T11:22:16;21.40;;;12.75;;
53875;SDS011;39789;53.216;5.624;2022-12-18T11:25:02;18.58;;;12.48;;
53875;SDS011;39789;53.216;5.624;2022-12-18T11:27:51;15.40;;;10.90;;
53875;SDS011;39789;53.216;5.624;2022-12-18T11:34:09;17.80;;;11.20;;
53875;SDS011;39789;53.216;5.624;2022-12-18T11:36:45;15.23;;;10.35;;
53875;SDS011;39789;53.216;5.624;2022-12-18T11:39:24;16.73;;;10.68;;
53875;SDS011;39789;53.216;5.624;2022-12-18T11:59:15;14.48;;;10.00;;
53875;SDS011;39789;53.216;5.624;2022-12-18T12:01:58;16.73;;;10.63;;
53875;SDS011;39789;53.216;5.624;2022-12-18T12:04:31;14.10;;;10.43;;
53875;SDS011;39789;53.216;5.624;2022-12-18T12:07:21;15.55;;;10.85;;
53875;SDS011;39789;53.216;5.624;2022-12-18T12:12:41;14.85;;;10.45;;
53875;SDS011;39789;53.216;5.624;2022-12-18T12:21:06;17.33;;;10.18;;
53875;SDS011;39789;53.216;5.624;2022-12-18T12:29:57;14.27;;;9.75;;
53875;SDS011;39789;53.216;5.624;2022-12-18T12:32:24;13.95;;;10.13;;
53875;SDS011;39789;53.216;5.624;2022-12-18T12:38:03;14.65;;;11.10;;
53875;SDS011;39789;53.216;5.624;2022-12-18T12:40:31;16.58;;;11.90;;
53875;SDS011;39789;53.216;5.624;2022-12-18T12:43:05;17.42;;;11.25;;
53875;SDS011;39789;53.216;5.624;2022-12-18T12:46:06;15.25;;;10.95;;
53875;SDS011;39789;53.216;5.624;2022-12-18T12:52:15;19.77;;;12.07;;
53875;SDS011;39789;53.216;5.624;2022-12-18T12:54:47;16.73;;;10.70;;
53875;SDS011;39789;53.216;5.624;2022-12-18T13:02:31;18.55;;;10.90;;
53875;SDS011;39789;53.216;5.624;2022-12-18T13:07:36;15.65;;;10.70;;
53875;SDS011;39789;53.216;5.624;2022-12-18T13:10:11;17.15;;;11.80;;
53875;SDS011;39789;53.216;5.624;2022-12-18T13:12:56;16.88;;;10.75;;
53875;SDS011;39789;53.216;5.624;2022-12-18T13:18:02;16.33;;;9.70;;
53875;SDS011;39789;53.216;5.624;2022-12-18T13:20:35;15.32;;;9.93;;
53875;SDS011;39789;53.216;5.624;2022-12-18T13:25:44;17.00;;;11.23;;
53875;SDS011;39789;53.216;5.624;2022-12-18T13:28:13;15.85;;;9.88;;
53875;SDS011;39789;53.216;5.624;2022-12-18T13:38:21;13.45;;;9.38;;
53875;SDS011;39789;53.216;5.624;2022-12-18T13:43:20;11.88;;;8.48;;
53875;SDS011;39789;53.216;5.624;2022-12-18T13:46:00;13.68;;;9.55;;
53875;SDS011;39789;53.216;5.624;2022-12-18T13:48:29;14.57;;;9.63;;
53875;SDS011;39789;53.216;5.624;2022-12-18T13:51:08;15.73;;;9.48;;
53875;SDS011;39789;53.216;5.624;2022-12-18T13:53:42;14.15;;;10.35;;
53875;SDS011;39789;53.216;5.624;2022-12-18T13:56:17;12.15;;;9.20;;
53875;SDS011;39789;53.216;5.624;2022-12-18T14:01:50;14.23;;;8.95;;
53875;SDS011;39789;53.216;5.624;2022-12-18T14:04:23;13.95;;;9.23;;
53875;SDS011;39789;53.216;5.624;2022-12-18T14:09:24;15.20;;;9.63;;
53875;SDS011;39789;53.216;5.624;2022-12-18T14:11:55;12.73;;;9.27;;
53875;SDS011;39789;53.216;5.624;2022-12-18T14:14:42;13.68;;;9.38;;
53875;SDS011;39789;53.216;5.624;2022-12-18T14:20:57;14.20;;;9.57;;
53875;SDS011;39789;53.216;5.624;2022-12-18T14:23:25;13.50;;;9.43;;
53875;SDS011;39789;53.216;5.624;2022-12-18T14:28:26;12.68;;;9.02;;
53875;SDS011;39789;53.216;5.624;2022-12-18T14:30:53;14.45;;;9.82;;
53875;SDS011;39789;53.216;5.624;2022-12-18T14:33:24;12.98;;;8.95;;
53875;SDS011;39789;53.216;5.624;2022-12-18T14:35:53;13.32;;;9.07;;
53875;SDS011;39789;53.216;5.624;2022-12-18T14:38:36;13.95;;;9.15;;
53875;SDS011;39789;53.216;5.624;2022-12-18T14:41:04;11.85;;;8.60;;
53875;SDS011;39789;53.216;5.624;2022-12-18T14:43:38;15.07;;;9.50;;
53875;SDS011;39789;53.216;5.624;2022-12-18T14:46:06;13.35;;;8.43;;
53875;SDS011;39789;53.216;5.624;2022-12-18T14:48:54;13.38;;;8.13;;
53875;SDS011;39789;53.216;5.624;2022-12-18T14:51:21;13.13;;;8.52;;
53875;SDS011;39789;53.216;5.624;2022-12-18T14:53:56;12.77;;;8.50;;
53875;SDS011;39789;53.216;5.624;2022-12-18T14:56:31;14.32;;;9.43;;
53875;SDS011;39789;53.216;5.624;2022-12-18T14:58:59;14.60;;;9.75;;
53875;SDS011;39789;53.216;5.624;2022-12-18T15:01:37;13.57;;;9.50;;
53875;SDS011;39789;53.216;5.624;2022-12-18T15:07:19;11.93;;;7.25;;
53875;SDS011;39789;53.216;5.624;2022-12-18T15:12:46;11.32;;;7.30;;
53875;SDS011;39789;53.216;5.624;2022-12-18T15:20:49;10.98;;;7.95;;
53875;SDS011;39789;53.216;5.624;2022-12-18T15:25:59;12.50;;;8.13;;
53875;SDS011;39789;53.216;5.624;2022-12-18T15:28:31;11.18;;;7.60;;
53875;SDS011;39789;53.216;5.624;2022-12-18T15:31:03;15.05;;;9.23;;
53875;SDS011;39789;53.216;5.624;2022-12-18T15:33:32;9.50;;;7.25;;
53875;SDS011;39789;53.216;5.624;2022-12-18T15:36:00;13.00;;;8.43;;
53875;SDS011;39789;53.216;5.624;2022-12-18T15:38:31;11.90;;;7.72;;
53875;SDS011;39789;53.216;5.624;2022-12-18T15:40:57;13.23;;;8.90;;
53875;SDS011;39789;53.216;5.624;2022-12-18T15:43:23;12.32;;;7.47;;
53875;SDS011;39789;53.216;5.624;2022-12-18T15:48:32;12.30;;;7.68;;
53875;SDS011;39789;53.216;5.624;2022-12-18T15:50:59;11.40;;;8.90;;
53875;SDS011;39789;53.216;5.624;2022-12-18T15:53:30;12.32;;;7.90;;
53875;SDS011;39789;53.216;5.624;2022-12-18T15:55:58;11.98;;;8.45;;
53875;SDS011;39789;53.216;5.624;2022-12-18T15:58:42;13.43;;;8.73;;
53875;SDS011;39789;53.216;5.624;2022-12-18T16:01:08;12.32;;;8.63;;
53875;SDS011;39789;53.216;5.624;2022-12-18T16:03:35;13.13;;;9.02;;
53875;SDS011;39789;53.216;5.624;2022-12-18T16:06:01;13.88;;;9.10;;
53875;SDS011;39789;53.216;5.624;2022-12-18T16:08:28;11.48;;;8.43;;
53875;SDS011;39789;53.216;5.624;2022-12-18T16:10:57;12.18;;;8.68;;
53875;SDS011;39789;53.216;5.624;2022-12-18T16:13:23;12.10;;;8.38;;
53875;SDS011;39789;53.216;5.624;2022-12-18T16:15:49;11.80;;;8.00;;
53875;SDS011;39789;53.216;5.624;2022-12-18T16:21:56;16.40;;;12.07;;
53875;SDS011;39789;53.216;5.624;2022-12-18T16:24:24;17.15;;;13.10;;
53875;SDS011;39789;53.216;5.624;2022-12-18T16:26:51;20.35;;;17.30;;
53875;SDS011;39789;53.216;5.624;2022-12-18T16:29:17;15.93;;;12.63;;
53875;SDS011;39789;53.216;5.624;2022-12-18T16:31:44;15.98;;;12.30;;
53875;SDS011;39789;53.216;5.624;2022-12-18T16:34:10;12.93;;;10.20;;
53875;SDS011;39789;53.216;5.624;2022-12-18T16:36:44;13.52;;;9.32;;
53875;SDS011;39789;53.216;5.624;2022-12-18T16:39:09;12.85;;;9.90;;
53875;SDS011;39789;53.216;5.624;2022-12-18T16:41:35;15.25;;;10.02;;
53875;SDS011;39789;53.216;5.624;2022-12-18T16:44:00;14.02;;;8.75;;
53875;SDS011;39789;53.216;5.624;2022-12-18T16:46:26;11.77;;;8.75;;
53875;SDS011;39789;53.216;5.624;2022-12-18T16:48:52;12.93;;;8.15;;
53875;SDS011;39789;53.216;5.624;2022-12-18T16:51:18;11.45;;;7.10;;
53875;SDS011;39789;53.216;5.624;2022-12-18T16:53:43;12.13;;;8.00;;
53875;SDS011;39789;53.216;5.624;2022-12-18T16:56:09;10.95;;;7.85;;
53875;SDS011;39789;53.216;5.624;2022-12-18T16:58:34;10.65;;;7.75;;
53875;SDS011;39789;53.216;5.624;2022-12-18T17:01:00;14.15;;;9.85;;
53875;SDS011;39789;53.216;5.624;2022-12-18T17:03:28;13.70;;;8.27;;
53875;SDS011;39789;53.216;5.624;2022-12-18T17:05:54;11.93;;;7.53;;
53875;SDS011;39789;53.216;5.624;2022-12-18T17:08:19;11.30;;;7.65;;
53875;SDS011;39789;53.216;5.624;2022-12-18T17:10:45;11.10;;;8.05;;
53875;SDS011;39789;53.216;5.624;2022-12-18T17:13:11;12.50;;;8.50;;
53875;SDS011;39789;53.216;5.624;2022-12-18T17:15:36;10.77;;;7.15;;
53875;SDS011;39789;53.216;5.624;2022-12-18T17:18:02;11.60;;;7.22;;